sensor_id;sensor_type;location;lat;lon;timestamp;temperature;humidity
25732;DHT22;13585;50.864;4.406;2022-09-17T00:01:18;23.80;53.50
25732;DHT22;13585;50.864;4.406;2022-09-17T00:03:51;23.80;53.70
25732;DHT22;13585;50.864;4.406;2022-09-17T00:06:18;23.80;53.40
25732;DHT22;13585;50.864;4.406;2022-09-17T00:08:44;23.80;53.50
25732;DHT22;13585;50.864;4.406;2022-09-17T00:11:14;23.80;53.50
25732;DHT22;13585;50.864;4.406;2022-09-17T00:13:41;23.80;53.50
25732;DHT22;13585;50.864;4.406;2022-09-17T00:16:11;23.80;53.40
25732;DHT22;13585;50.864;4.406;2022-09-17T00:18:37;23.80;53.40
25732;DHT22;13585;50.864;4.406;2022-09-17T00:21:07;23.80;53.40
25732;DHT22;13585;50.864;4.406;2022-09-17T00:23:39;23.80;53.40
25732;DHT22;13585;50.864;4.406;2022-09-17T00:26:05;23.80;53.40
25732;DHT22;13585;50.864;4.406;2022-09-17T00:28:31;23.80;53.40
25732;DHT22;13585;50.864;4.406;2022-09-17T00:30:57;23.80;53.40
25732;DHT22;13585;50.864;4.406;2022-09-17T00:33:28;23.80;53.40
25732;DHT22;13585;50.864;4.406;2022-09-17T00:36:02;23.70;53.40
25732;DHT22;13585;50.864;4.406;2022-09-17T00:38:28;23.70;53.40
25732;DHT22;13585;50.864;4.406;2022-09-17T00:40:54;23.70;53.30
25732;DHT22;13585;50.864;4.406;2022-09-17T00:45:59;23.70;53.40
25732;DHT22;13585;50.864;4.406;2022-09-17T00:48:25;23.70;53.30
25732;DHT22;13585;50.864;4.406;2022-09-17T00:50:52;23.70;53.30
25732;DHT22;13585;50.864;4.406;2022-09-17T00:53:20;23.70;53.30
25732;DHT22;13585;50.864;4.406;2022-09-17T00:55:48;23.70;53.30
25732;DHT22;13585;50.864;4.406;2022-09-17T00:58:18;23.70;53.30
25732;DHT22;13585;50.864;4.406;2022-09-17T01:00:45;23.70;53.30
25732;DHT22;13585;50.864;4.406;2022-09-17T01:03:12;23.70;53.30
25732;DHT22;13585;50.864;4.406;2022-09-17T01:05:48;23.70;53.30
25732;DHT22;13585;50.864;4.406;2022-09-17T01:08:27;23.70;53.30
25732;DHT22;13585;50.864;4.406;2022-09-17T01:11:19;23.70;53.30
25732;DHT22;13585;50.864;4.406;2022-09-17T01:25:19;23.70;53.20
25732;DHT22;13585;50.864;4.406;2022-09-17T01:31:01;23.70;53.20
25732;DHT22;13585;50.864;4.406;2022-09-17T01:41:45;23.70;53.30
25732;DHT22;13585;50.864;4.406;2022-09-17T01:44:29;23.70;53.20
25732;DHT22;13585;50.864;4.406;2022-09-17T01:47:16;23.70;53.20
25732;DHT22;13585;50.864;4.406;2022-09-17T01:49:44;23.70;53.20
25732;DHT22;13585;50.864;4.406;2022-09-17T01:52:12;23.70;53.10
25732;DHT22;13585;50.864;4.406;2022-09-17T01:54:44;23.70;53.20
25732;DHT22;13585;50.864;4.406;2022-09-17T01:57:17;23.70;53.20
25732;DHT22;13585;50.864;4.406;2022-09-17T01:59:45;23.70;53.80
25732;DHT22;13585;50.864;4.406;2022-09-17T02:02:30;23.80;53.10
25732;DHT22;13585;50.864;4.406;2022-09-17T02:05:08;23.70;53.00
25732;DHT22;13585;50.864;4.406;2022-09-17T02:07:46;23.70;53.10
25732;DHT22;13585;50.864;4.406;2022-09-17T02:10:22;23.70;53.10
25732;DHT22;13585;50.864;4.406;2022-09-17T02:12:54;23.70;53.10
25732;DHT22;13585;50.864;4.406;2022-09-17T02:15:27;23.70;53.10
25732;DHT22;13585;50.864;4.406;2022-09-17T02:18:09;23.70;53.20
25732;DHT22;13585;50.864;4.406;2022-09-17T02:20:51;23.70;53.10
25732;DHT22;13585;50.864;4.406;2022-09-17T02:23:29;23.70;53.20
25732;DHT22;13585;50.864;4.406;2022-09-17T02:26:01;23.60;53.10
25732;DHT22;13585;50.864;4.406;2022-09-17T02:30:59;23.60;53.00
25732;DHT22;13585;50.864;4.406;2022-09-17T02:33:26;23.70;53.10
25732;DHT22;13585;50.864;4.406;2022-09-17T02:35:55;23.60;53.70
25732;DHT22;13585;50.864;4.406;2022-09-17T02:38:25;23.60;53.10
25732;DHT22;13585;50.864;4.406;2022-09-17T02:43:48;23.60;53.10
25732;DHT22;13585;50.864;4.406;2022-09-17T02:54:10;23.60;53.00
25732;DHT22;13585;50.864;4.406;2022-09-17T02:56:48;23.60;53.10
25732;DHT22;13585;50.864;4.406;2022-09-17T03:05:19;23.60;53.10
25732;DHT22;13585;50.864;4.406;2022-09-17T03:07:48;23.70;52.90
25732;DHT22;13585;50.864;4.406;2022-09-17T03:10:15;23.60;53.00
25732;DHT22;13585;50.864;4.406;2022-09-17T03:12:41;23.60;53.00
25732;DHT22;13585;50.864;4.406;2022-09-17T03:15:07;23.70;53.00
25732;DHT22;13585;50.864;4.406;2022-09-17T03:17:33;23.60;53.00
25732;DHT22;13585;50.864;4.406;2022-09-17T03:19:59;23.60;53.00
25732;DHT22;13585;50.864;4.406;2022-09-17T03:22:25;23.60;53.00
25732;DHT22;13585;50.864;4.406;2022-09-17T03:24:50;23.60;53.00
25732;DHT22;13585;50.864;4.406;2022-09-17T03:27:16;23.50;52.90
25732;DHT22;13585;50.864;4.406;2022-09-17T03:29:42;23.60;53.00
25732;DHT22;13585;50.864;4.406;2022-09-17T03:32:08;23.60;53.00
25732;DHT22;13585;50.864;4.406;2022-09-17T03:34:34;23.60;53.00
25732;DHT22;13585;50.864;4.406;2022-09-17T03:37:00;23.60;53.00
25732;DHT22;13585;50.864;4.406;2022-09-17T03:39:25;23.60;53.00
25732;DHT22;13585;50.864;4.406;2022-09-17T03:41:51;23.60;53.00
25732;DHT22;13585;50.864;4.406;2022-09-17T03:44:17;23.60;53.00
25732;DHT22;13585;50.864;4.406;2022-09-17T03:46:44;23.60;53.00
25732;DHT22;13585;50.864;4.406;2022-09-17T03:49:10;23.60;52.90
25732;DHT22;13585;50.864;4.406;2022-09-17T03:51:36;23.60;53.00
25732;DHT22;13585;50.864;4.406;2022-09-17T03:54:02;23.60;53.00
25732;DHT22;13585;50.864;4.406;2022-09-17T03:56:28;23.60;53.00
25732;DHT22;13585;50.864;4.406;2022-09-17T03:59:00;23.60;53.00
25732;DHT22;13585;50.864;4.406;2022-09-17T04:01:27;23.50;52.90
25732;DHT22;13585;50.864;4.406;2022-09-17T04:03:53;23.60;52.90
25732;DHT22;13585;50.864;4.406;2022-09-17T04:06:22;23.60;52.90
25732;DHT22;13585;50.864;4.406;2022-09-17T04:08:48;23.60;52.90
25732;DHT22;13585;50.864;4.406;2022-09-17T04:11:14;23.60;53.00
25732;DHT22;13585;50.864;4.406;2022-09-17T04:13:40;23.60;52.90
25732;DHT22;13585;50.864;4.406;2022-09-17T04:16:06;23.60;53.00
25732;DHT22;13585;50.864;4.406;2022-09-17T04:18:32;23.60;52.90
25732;DHT22;13585;50.864;4.406;2022-09-17T04:20:58;23.60;52.90
25732;DHT22;13585;50.864;4.406;2022-09-17T04:23:23;23.50;52.90
25732;DHT22;13585;50.864;4.406;2022-09-17T04:25:49;23.60;52.90
25732;DHT22;13585;50.864;4.406;2022-09-17T04:28:15;23.60;52.90
25732;DHT22;13585;50.864;4.406;2022-09-17T04:30:41;23.50;52.80
25732;DHT22;13585;50.864;4.406;2022-09-17T04:33:10;23.50;52.80
25732;DHT22;13585;50.864;4.406;2022-09-17T04:35:36;23.50;52.90
25732;DHT22;13585;50.864;4.406;2022-09-17T04:38:02;23.50;52.90
25732;DHT22;13585;50.864;4.406;2022-09-17T04:40:28;23.50;52.90
25732;DHT22;13585;50.864;4.406;2022-09-17T04:42:56;23.50;52.80
25732;DHT22;13585;50.864;4.406;2022-09-17T04:45:24;23.50;52.90
25732;DHT22;13585;50.864;4.406;2022-09-17T04:47:50;23.50;52.80
25732;DHT22;13585;50.864;4.406;2022-09-17T04:50:19;23.50;52.80
25732;DHT22;13585;50.864;4.406;2022-09-17T04:52:45;23.50;52.80
25732;DHT22;13585;50.864;4.406;2022-09-17T04:55:12;23.50;52.80
25732;DHT22;13585;50.864;4.406;2022-09-17T04:57:38;23.50;52.80
25732;DHT22;13585;50.864;4.406;2022-09-17T05:00:05;23.50;52.80
25732;DHT22;13585;50.864;4.406;2022-09-17T05:02:35;23.50;52.80
25732;DHT22;13585;50.864;4.406;2022-09-17T05:05:00;23.50;52.70
25732;DHT22;13585;50.864;4.406;2022-09-17T05:07:26;23.50;52.80
25732;DHT22;13585;50.864;4.406;2022-09-17T05:09:52;23.50;52.70
25732;DHT22;13585;50.864;4.406;2022-09-17T05:12:18;23.50;52.80
25732;DHT22;13585;50.864;4.406;2022-09-17T05:14:44;23.50;52.70
25732;DHT22;13585;50.864;4.406;2022-09-17T05:17:10;23.50;52.70
25732;DHT22;13585;50.864;4.406;2022-09-17T05:19:36;23.50;52.70
25732;DHT22;13585;50.864;4.406;2022-09-17T05:22:02;23.50;52.70
25732;DHT22;13585;50.864;4.406;2022-09-17T05:24:28;23.50;52.70
25732;DHT22;13585;50.864;4.406;2022-09-17T05:26:53;23.50;52.70
25732;DHT22;13585;50.864;4.406;2022-09-17T05:29:19;23.50;52.70
25732;DHT22;13585;50.864;4.406;2022-09-17T05:31:45;23.50;52.70
25732;DHT22;13585;50.864;4.406;2022-09-17T05:34:11;23.50;52.70
25732;DHT22;13585;50.864;4.406;2022-09-17T05:36:37;23.40;52.60
25732;DHT22;13585;50.864;4.406;2022-09-17T05:39:03;23.50;52.70
25732;DHT22;13585;50.864;4.406;2022-09-17T05:41:28;23.50;53.30
25732;DHT22;13585;50.864;4.406;2022-09-17T05:43:54;23.50;52.60
25732;DHT22;13585;50.864;4.406;2022-09-17T05:46:20;23.40;52.60
25732;DHT22;13585;50.864;4.406;2022-09-17T05:48:46;23.50;52.60
25732;DHT22;13585;50.864;4.406;2022-09-17T05:51:12;23.40;52.60
25732;DHT22;13585;50.864;4.406;2022-09-17T05:53:37;23.50;52.60
25732;DHT22;13585;50.864;4.406;2022-09-17T05:56:04;23.40;52.60
25732;DHT22;13585;50.864;4.406;2022-09-17T05:58:29;23.40;52.60
25732;DHT22;13585;50.864;4.406;2022-09-17T06:01:00;23.50;52.70
25732;DHT22;13585;50.864;4.406;2022-09-17T06:03:25;23.40;52.70
25732;DHT22;13585;50.864;4.406;2022-09-17T06:05:58;23.40;52.70
25732;DHT22;13585;50.864;4.406;2022-09-17T06:08:25;23.40;52.80
25732;DHT22;13585;50.864;4.406;2022-09-17T06:10:52;23.40;52.80
25732;DHT22;13585;50.864;4.406;2022-09-17T06:13:18;23.40;52.80
25732;DHT22;13585;50.864;4.406;2022-09-17T06:15:52;23.40;52.80
25732;DHT22;13585;50.864;4.406;2022-09-17T06:18:19;23.40;52.90
25732;DHT22;13585;50.864;4.406;2022-09-17T06:21:00;23.40;52.90
25732;DHT22;13585;50.864;4.406;2022-09-17T06:23:26;23.40;53.50
25732;DHT22;13585;50.864;4.406;2022-09-17T06:25:57;23.40;52.90
25732;DHT22;13585;50.864;4.406;2022-09-17T06:28:24;23.40;52.90
25732;DHT22;13585;50.864;4.406;2022-09-17T06:30:51;23.40;53.60
25732;DHT22;13585;50.864;4.406;2022-09-17T06:33:22;23.40;53.00
25732;DHT22;13585;50.864;4.406;2022-09-17T06:35:48;23.40;53.00
25732;DHT22;13585;50.864;4.406;2022-09-17T06:38:20;23.40;53.00
25732;DHT22;13585;50.864;4.406;2022-09-17T06:40:50;23.40;53.60
25732;DHT22;13585;50.864;4.406;2022-09-17T06:43:16;23.40;53.00
25732;DHT22;13585;50.864;4.406;2022-09-17T06:45:42;23.40;53.00
25732;DHT22;13585;50.864;4.406;2022-09-17T06:48:08;23.40;53.10
25732;DHT22;13585;50.864;4.406;2022-09-17T06:50:33;23.40;53.10
25732;DHT22;13585;50.864;4.406;2022-09-17T06:52:59;23.40;53.10
25732;DHT22;13585;50.864;4.406;2022-09-17T06:55:25;23.40;53.10
25732;DHT22;13585;50.864;4.406;2022-09-17T06:57:52;23.40;53.00
25732;DHT22;13585;50.864;4.406;2022-09-17T07:00:19;23.40;53.00
25732;DHT22;13585;50.864;4.406;2022-09-17T07:02:57;23.40;53.10
25732;DHT22;13585;50.864;4.406;2022-09-17T07:05:24;23.40;53.10
25732;DHT22;13585;50.864;4.406;2022-09-17T07:07:50;23.40;53.00
25732;DHT22;13585;50.864;4.406;2022-09-17T07:10:16;23.50;53.10
25732;DHT22;13585;50.864;4.406;2022-09-17T07:12:42;23.40;53.00
25732;DHT22;13585;50.864;4.406;2022-09-17T07:15:08;23.50;53.10
25732;DHT22;13585;50.864;4.406;2022-09-17T07:17:36;23.40;53.00
25732;DHT22;13585;50.864;4.406;2022-09-17T07:20:04;23.50;53.10
25732;DHT22;13585;50.864;4.406;2022-09-17T07:22:30;23.50;53.10
25732;DHT22;13585;50.864;4.406;2022-09-17T07:24:56;23.40;53.10
25732;DHT22;13585;50.864;4.406;2022-09-17T07:27:25;23.40;53.10
25732;DHT22;13585;50.864;4.406;2022-09-17T07:29:51;23.40;53.20
25732;DHT22;13585;50.864;4.406;2022-09-17T07:32:17;23.40;53.20
25732;DHT22;13585;50.864;4.406;2022-09-17T07:34:42;23.40;53.90
25732;DHT22;13585;50.864;4.406;2022-09-17T07:37:08;23.40;53.20
25732;DHT22;13585;50.864;4.406;2022-09-17T07:39:34;23.40;53.20
25732;DHT22;13585;50.864;4.406;2022-09-17T07:42:00;23.40;53.20
25732;DHT22;13585;50.864;4.406;2022-09-17T07:44:26;23.40;53.20
25732;DHT22;13585;50.864;4.406;2022-09-17T07:46:52;23.40;53.20
25732;DHT22;13585;50.864;4.406;2022-09-17T07:49:18;23.40;53.20
25732;DHT22;13585;50.864;4.406;2022-09-17T07:51:44;23.40;53.20
25732;DHT22;13585;50.864;4.406;2022-09-17T07:54:10;23.40;53.20
25732;DHT22;13585;50.864;4.406;2022-09-17T07:56:35;23.40;53.20
25732;DHT22;13585;50.864;4.406;2022-09-17T07:59:02;23.40;53.20
25732;DHT22;13585;50.864;4.406;2022-09-17T08:01:28;23.40;53.20
25732;DHT22;13585;50.864;4.406;2022-09-17T08:03:56;23.40;53.20
25732;DHT22;13585;50.864;4.406;2022-09-17T08:06:26;23.40;53.20
25732;DHT22;13585;50.864;4.406;2022-09-17T08:09:02;23.40;53.20
25732;DHT22;13585;50.864;4.406;2022-09-17T08:11:29;23.50;53.20
25732;DHT22;13585;50.864;4.406;2022-09-17T08:13:58;23.40;53.20
25732;DHT22;13585;50.864;4.406;2022-09-17T08:16:24;23.40;53.30
25732;DHT22;13585;50.864;4.406;2022-09-17T08:18:56;23.40;53.30
25732;DHT22;13585;50.864;4.406;2022-09-17T08:21:22;23.40;53.30
25732;DHT22;13585;50.864;4.406;2022-09-17T08:23:57;23.40;53.30
25732;DHT22;13585;50.864;4.406;2022-09-17T08:26:23;23.40;53.30
25732;DHT22;13585;50.864;4.406;2022-09-17T08:28:53;23.40;53.40
25732;DHT22;13585;50.864;4.406;2022-09-17T08:31:22;23.40;53.40
25732;DHT22;13585;50.864;4.406;2022-09-17T08:33:49;23.40;53.30
25732;DHT22;13585;50.864;4.406;2022-09-17T08:36:32;23.40;53.30
25732;DHT22;13585;50.864;4.406;2022-09-17T08:39:01;23.40;53.50
25732;DHT22;13585;50.864;4.406;2022-09-17T08:41:54;23.40;53.40
25732;DHT22;13585;50.864;4.406;2022-09-17T08:44:43;23.30;53.50
25732;DHT22;13585;50.864;4.406;2022-09-17T08:47:32;23.40;53.50
25732;DHT22;13585;50.864;4.406;2022-09-17T08:50:31;23.40;53.50
25732;DHT22;13585;50.864;4.406;2022-09-17T08:56:44;23.40;53.50
25732;DHT22;13585;50.864;4.406;2022-09-17T09:11:04;23.40;53.70
25732;DHT22;13585;50.864;4.406;2022-09-17T09:13:56;23.40;53.80
25732;DHT22;13585;50.864;4.406;2022-09-17T09:16:35;23.40;53.70
25732;DHT22;13585;50.864;4.406;2022-09-17T09:19:46;23.40;53.70
25732;DHT22;13585;50.864;4.406;2022-09-17T09:33:38;23.40;53.90
25732;DHT22;13585;50.864;4.406;2022-09-17T09:36:09;23.40;54.00
25732;DHT22;13585;50.864;4.406;2022-09-17T09:38:39;23.40;53.90
25732;DHT22;13585;50.864;4.406;2022-09-17T09:41:30;23.40;53.90
25732;DHT22;13585;50.864;4.406;2022-09-17T09:44:10;23.40;54.00
25732;DHT22;13585;50.864;4.406;2022-09-17T09:49:51;23.40;54.00
25732;DHT22;13585;50.864;4.406;2022-09-17T09:52:44;23.40;53.90
25732;DHT22;13585;50.864;4.406;2022-09-17T10:05:56;23.40;54.10
25732;DHT22;13585;50.864;4.406;2022-09-17T10:08:29;23.40;54.20
25732;DHT22;13585;50.864;4.406;2022-09-17T10:11:19;23.40;54.10
25732;DHT22;13585;50.864;4.406;2022-09-17T10:13:51;23.40;54.30
25732;DHT22;13585;50.864;4.406;2022-09-17T10:16:17;23.40;54.30
25732;DHT22;13585;50.864;4.406;2022-09-17T10:35:04;23.40;55.20
25732;DHT22;13585;50.864;4.406;2022-09-17T10:37:47;23.40;55.40
25732;DHT22;13585;50.864;4.406;2022-09-17T10:40:26;23.40;55.40
25732;DHT22;13585;50.864;4.406;2022-09-17T10:43:24;23.40;55.60
25732;DHT22;13585;50.864;4.406;2022-09-17T10:48:56;23.40;55.70
25732;DHT22;13585;50.864;4.406;2022-09-17T10:51:23;23.40;55.90
25732;DHT22;13585;50.864;4.406;2022-09-17T11:15:08;23.40;56.90
25732;DHT22;13585;50.864;4.406;2022-09-17T11:30:16;23.40;57.20
25732;DHT22;13585;50.864;4.406;2022-09-17T11:32:49;23.40;57.30
25732;DHT22;13585;50.864;4.406;2022-09-17T11:35:22;23.40;57.40
25732;DHT22;13585;50.864;4.406;2022-09-17T11:38:38;23.40;57.50
25732;DHT22;13585;50.864;4.406;2022-09-17T11:41:21;23.40;57.50
25732;DHT22;13585;50.864;4.406;2022-09-17T11:44:35;23.40;57.50
25732;DHT22;13585;50.864;4.406;2022-09-17T11:47:35;23.40;57.50
25732;DHT22;13585;50.864;4.406;2022-09-17T12:00:28;23.40;57.30
25732;DHT22;13585;50.864;4.406;2022-09-17T12:03:12;23.50;58.00
25732;DHT22;13585;50.864;4.406;2022-09-17T12:05:59;23.40;57.50
25732;DHT22;13585;50.864;4.406;2022-09-17T12:16:23;23.50;57.30
25732;DHT22;13585;50.864;4.406;2022-09-17T12:24:37;23.40;57.30
25732;DHT22;13585;50.864;4.406;2022-09-17T12:33:50;23.40;57.30
25732;DHT22;13585;50.864;4.406;2022-09-17T12:49:23;23.40;57.20
25732;DHT22;13585;50.864;4.406;2022-09-17T12:59:04;23.40;57.20
25732;DHT22;13585;50.864;4.406;2022-09-17T13:05:20;23.50;57.30
25732;DHT22;13585;50.864;4.406;2022-09-17T14:30:29;23.40;56.30
25732;DHT22;13585;50.864;4.406;2022-09-17T14:35:49;23.50;56.30
25732;DHT22;13585;50.864;4.406;2022-09-17T14:38:40;23.40;56.20
25732;DHT22;13585;50.864;4.406;2022-09-17T14:43:59;23.40;56.10
25732;DHT22;13585;50.864;4.406;2022-09-17T14:46:32;23.40;56.00
25732;DHT22;13585;50.864;4.406;2022-09-17T14:49:25;23.40;55.90
25732;DHT22;13585;50.864;4.406;2022-09-17T14:51:57;23.40;56.00
25732;DHT22;13585;50.864;4.406;2022-09-17T14:54:44;23.40;55.80
25732;DHT22;13585;50.864;4.406;2022-09-17T14:57:26;23.40;55.80
25732;DHT22;13585;50.864;4.406;2022-09-17T14:59:54;23.40;55.60
25732;DHT22;13585;50.864;4.406;2022-09-17T15:02:39;23.40;55.50
25732;DHT22;13585;50.864;4.406;2022-09-17T15:11:08;23.40;55.40
25732;DHT22;13585;50.864;4.406;2022-09-17T15:13:53;23.40;55.90
25732;DHT22;13585;50.864;4.406;2022-09-17T15:16:23;23.40;55.40
25732;DHT22;13585;50.864;4.406;2022-09-17T15:19:02;23.40;55.20
25732;DHT22;13585;50.864;4.406;2022-09-17T15:21:40;23.40;55.30
25732;DHT22;13585;50.864;4.406;2022-09-17T15:27:25;23.40;55.30
25732;DHT22;13585;50.864;4.406;2022-09-17T15:30:17;23.30;55.20
25732;DHT22;13585;50.864;4.406;2022-09-17T15:35:28;23.40;55.10
25732;DHT22;13585;50.864;4.406;2022-09-17T15:41:34;23.40;55.30
25732;DHT22;13585;50.864;4.406;2022-09-17T15:44:19;23.40;55.30
25732;DHT22;13585;50.864;4.406;2022-09-17T15:53:28;23.40;55.40
25732;DHT22;13585;50.864;4.406;2022-09-17T15:56:26;23.40;55.20
25732;DHT22;13585;50.864;4.406;2022-09-17T16:01:56;23.50;55.30
25732;DHT22;13585;50.864;4.406;2022-09-17T16:04:46;23.40;55.30
25732;DHT22;13585;50.864;4.406;2022-09-17T16:07:27;23.40;56.00
25732;DHT22;13585;50.864;4.406;2022-09-17T16:09:55;23.40;55.40
25732;DHT22;13585;50.864;4.406;2022-09-17T16:12:25;23.40;55.40
25732;DHT22;13585;50.864;4.406;2022-09-17T16:15:00;23.40;55.50
25732;DHT22;13585;50.864;4.406;2022-09-17T16:17:46;23.40;55.50
25732;DHT22;13585;50.864;4.406;2022-09-17T16:20:23;23.40;55.50
25732;DHT22;13585;50.864;4.406;2022-09-17T16:22:52;23.40;55.50
25732;DHT22;13585;50.864;4.406;2022-09-17T16:25:26;23.40;55.50
25732;DHT22;13585;50.864;4.406;2022-09-17T16:27:58;23.40;55.50
25732;DHT22;13585;50.864;4.406;2022-09-17T16:30:27;23.40;55.50
25732;DHT22;13585;50.864;4.406;2022-09-17T16:32:53;23.50;55.60
25732;DHT22;13585;50.864;4.406;2022-09-17T16:35:22;23.40;55.60
25732;DHT22;13585;50.864;4.406;2022-09-17T16:37:49;23.40;55.60
25732;DHT22;13585;50.864;4.406;2022-09-17T16:40:18;23.40;55.70
25732;DHT22;13585;50.864;4.406;2022-09-17T16:42:44;23.40;55.80
25732;DHT22;13585;50.864;4.406;2022-09-17T16:45:11;23.40;55.90
25732;DHT22;13585;50.864;4.406;2022-09-17T16:47:38;23.40;56.20
25732;DHT22;13585;50.864;4.406;2022-09-17T16:50:06;23.40;56.30
25732;DHT22;13585;50.864;4.406;2022-09-17T16:52:33;23.40;56.50
25732;DHT22;13585;50.864;4.406;2022-09-17T16:55:03;23.40;56.70
25732;DHT22;13585;50.864;4.406;2022-09-17T16:57:30;23.40;56.90
25732;DHT22;13585;50.864;4.406;2022-09-17T16:59:56;23.40;57.00
25732;DHT22;13585;50.864;4.406;2022-09-17T17:02:23;23.40;57.00
25732;DHT22;13585;50.864;4.406;2022-09-17T17:04:48;23.40;57.10
25732;DHT22;13585;50.864;4.406;2022-09-17T17:07:14;23.40;57.30
25732;DHT22;13585;50.864;4.406;2022-09-17T17:09:40;23.40;57.30
25732;DHT22;13585;50.864;4.406;2022-09-17T17:12:06;23.40;57.30
25732;DHT22;13585;50.864;4.406;2022-09-17T17:14:32;23.40;57.30
25732;DHT22;13585;50.864;4.406;2022-09-17T17:16:58;23.40;57.40
25732;DHT22;13585;50.864;4.406;2022-09-17T17:19:24;23.40;57.40
25732;DHT22;13585;50.864;4.406;2022-09-17T17:21:52;23.40;57.40
25732;DHT22;13585;50.864;4.406;2022-09-17T17:24:19;23.40;57.40
25732;DHT22;13585;50.864;4.406;2022-09-17T17:26:46;23.40;57.40
25732;DHT22;13585;50.864;4.406;2022-09-17T17:29:13;23.40;57.50
25732;DHT22;13585;50.864;4.406;2022-09-17T17:31:39;23.40;57.70
25732;DHT22;13585;50.864;4.406;2022-09-17T17:34:05;23.40;58.00
25732;DHT22;13585;50.864;4.406;2022-09-17T17:36:31;23.40;58.00
25732;DHT22;13585;50.864;4.406;2022-09-17T17:38:58;23.40;58.10
25732;DHT22;13585;50.864;4.406;2022-09-17T17:41:25;23.40;58.20
25732;DHT22;13585;50.864;4.406;2022-09-17T17:43:55;23.40;58.30
25732;DHT22;13585;50.864;4.406;2022-09-17T17:46:22;23.40;58.30
25732;DHT22;13585;50.864;4.406;2022-09-17T17:48:49;23.40;58.30
25732;DHT22;13585;50.864;4.406;2022-09-17T17:51:15;23.40;58.40
25732;DHT22;13585;50.864;4.406;2022-09-17T17:53:43;23.40;58.40
25732;DHT22;13585;50.864;4.406;2022-09-17T17:56:10;23.40;58.40
25732;DHT22;13585;50.864;4.406;2022-09-17T17:58:37;23.40;58.40
25732;DHT22;13585;50.864;4.406;2022-09-17T18:01:11;23.40;58.40
25732;DHT22;13585;50.864;4.406;2022-09-17T18:03:37;23.40;58.50
25732;DHT22;13585;50.864;4.406;2022-09-17T18:06:04;23.40;58.40
25732;DHT22;13585;50.864;4.406;2022-09-17T18:08:31;23.40;58.40
25732;DHT22;13585;50.864;4.406;2022-09-17T18:10:57;23.40;58.50
25732;DHT22;13585;50.864;4.406;2022-09-17T18:13:29;23.40;58.50
25732;DHT22;13585;50.864;4.406;2022-09-17T18:15:57;23.40;58.50
25732;DHT22;13585;50.864;4.406;2022-09-17T18:18:29;23.40;58.60
25732;DHT22;13585;50.864;4.406;2022-09-17T18:21:03;23.40;58.60
25732;DHT22;13585;50.864;4.406;2022-09-17T18:23:32;23.40;58.70
25732;DHT22;13585;50.864;4.406;2022-09-17T18:25:59;23.40;58.70
25732;DHT22;13585;50.864;4.406;2022-09-17T18:28:27;23.40;58.80
25732;DHT22;13585;50.864;4.406;2022-09-17T18:30:53;23.40;58.80
25732;DHT22;13585;50.864;4.406;2022-09-17T18:33:24;23.40;58.90
25732;DHT22;13585;50.864;4.406;2022-09-17T18:35:51;23.40;58.90
25732;DHT22;13585;50.864;4.406;2022-09-17T18:38:22;23.40;58.90
25732;DHT22;13585;50.864;4.406;2022-09-17T18:40:49;23.40;58.90
25732;DHT22;13585;50.864;4.406;2022-09-17T18:43:15;23.40;58.90
25732;DHT22;13585;50.864;4.406;2022-09-17T18:45:41;23.40;59.50
25732;DHT22;13585;50.864;4.406;2022-09-17T18:48:08;23.40;58.90
25732;DHT22;13585;50.864;4.406;2022-09-17T18:50:34;23.40;58.90
25732;DHT22;13585;50.864;4.406;2022-09-17T18:53:00;23.40;58.90
25732;DHT22;13585;50.864;4.406;2022-09-17T18:55:39;23.40;58.90
25732;DHT22;13585;50.864;4.406;2022-09-17T18:58:29;23.40;58.90
25732;DHT22;13585;50.864;4.406;2022-09-17T19:00:55;23.40;58.80
25732;DHT22;13585;50.864;4.406;2022-09-17T19:03:21;23.40;58.80
25732;DHT22;13585;50.864;4.406;2022-09-17T19:05:47;23.40;58.70
25732;DHT22;13585;50.864;4.406;2022-09-17T19:08:13;23.40;58.70
25732;DHT22;13585;50.864;4.406;2022-09-17T19:10:39;23.40;58.70
25732;DHT22;13585;50.864;4.406;2022-09-17T19:13:06;23.40;58.70
25732;DHT22;13585;50.864;4.406;2022-09-17T19:15:32;23.40;58.70
25732;DHT22;13585;50.864;4.406;2022-09-17T19:18:04;23.40;58.70
25732;DHT22;13585;50.864;4.406;2022-09-17T19:20:34;23.40;58.60
25732;DHT22;13585;50.864;4.406;2022-09-17T19:23:03;23.40;58.60
25732;DHT22;13585;50.864;4.406;2022-09-17T19:25:29;23.40;58.60
25732;DHT22;13585;50.864;4.406;2022-09-17T19:27:55;23.40;58.60
25732;DHT22;13585;50.864;4.406;2022-09-17T19:30:23;23.40;58.60
25732;DHT22;13585;50.864;4.406;2022-09-17T19:32:56;23.40;58.60
25732;DHT22;13585;50.864;4.406;2022-09-17T19:35:26;23.40;58.50
25732;DHT22;13585;50.864;4.406;2022-09-17T19:48:07;23.40;58.50
25732;DHT22;13585;50.864;4.406;2022-09-17T20:08:57;23.30;58.50
25732;DHT22;13585;50.864;4.406;2022-09-17T20:11:24;23.30;58.50
25732;DHT22;13585;50.864;4.406;2022-09-17T20:13:56;23.30;58.50
25732;DHT22;13585;50.864;4.406;2022-09-17T20:16:21;23.30;58.50
25732;DHT22;13585;50.864;4.406;2022-09-17T20:18:48;23.30;58.50
25732;DHT22;13585;50.864;4.406;2022-09-17T20:21:19;23.30;58.50
25732;DHT22;13585;50.864;4.406;2022-09-17T20:23:46;23.30;58.50
25732;DHT22;13585;50.864;4.406;2022-09-17T20:26:12;23.30;58.50
25732;DHT22;13585;50.864;4.406;2022-09-17T20:28:39;23.30;58.40
25732;DHT22;13585;50.864;4.406;2022-09-17T20:31:22;23.30;58.50
25732;DHT22;13585;50.864;4.406;2022-09-17T20:33:57;23.30;58.50
25732;DHT22;13585;50.864;4.406;2022-09-17T20:36:26;23.30;58.40
25732;DHT22;13585;50.864;4.406;2022-09-17T20:38:56;23.30;58.40
25732;DHT22;13585;50.864;4.406;2022-09-17T20:41:22;23.30;58.40
25732;DHT22;13585;50.864;4.406;2022-09-17T20:43:50;23.40;58.40
25732;DHT22;13585;50.864;4.406;2022-09-17T20:46:17;23.30;58.30
25732;DHT22;13585;50.864;4.406;2022-09-17T20:48:53;23.30;58.30
25732;DHT22;13585;50.864;4.406;2022-09-17T20:51:23;23.30;58.30
25732;DHT22;13585;50.864;4.406;2022-09-17T20:53:50;23.30;58.30
25732;DHT22;13585;50.864;4.406;2022-09-17T20:56:19;23.40;58.40
25732;DHT22;13585;50.864;4.406;2022-09-17T20:58:51;23.40;58.40
25732;DHT22;13585;50.864;4.406;2022-09-17T21:01:28;23.30;58.30
25732;DHT22;13585;50.864;4.406;2022-09-17T21:04:00;23.30;58.40
25732;DHT22;13585;50.864;4.406;2022-09-17T21:06:29;23.30;58.30
25732;DHT22;13585;50.864;4.406;2022-09-17T21:08:55;23.30;58.20
25732;DHT22;13585;50.864;4.406;2022-09-17T21:11:23;23.30;58.30
25732;DHT22;13585;50.864;4.406;2022-09-17T21:14:03;23.30;58.30
25732;DHT22;13585;50.864;4.406;2022-09-17T21:16:32;23.30;58.30
25732;DHT22;13585;50.864;4.406;2022-09-17T21:19:00;23.30;58.20
25732;DHT22;13585;50.864;4.406;2022-09-17T21:21:27;23.40;58.30
25732;DHT22;13585;50.864;4.406;2022-09-17T21:23:53;23.30;58.20
25732;DHT22;13585;50.864;4.406;2022-09-17T21:26:23;23.30;58.30